Time;durP1;ratioP1;P1;durP2;ratioP2;P2;SDS_P1;SDS_P2;PMS_P1;PMS_P2;Temp;Humidity;BMP_temperature;BMP_pressure;BME280_temperature;BME280_humidity;BME280_pressure;Samples;Min_cycle;Max_cycle;Signal;HPM_P1;HPM_P2
2023/06/20 00:01:06;;;;;;;1.73;1.08;;;20.80;99.90;;;;;;4405575;32;20122;-75
2023/06/20 00:03:31;;;;;;;1.12;0.88;;;20.90;99.90;;;;;;4405390;32;20584;-76
2023/06/20 00:05:57;;;;;;;1.05;0.70;;;20.90;99.90;;;;;;4405782;32;20085;-76
2023/06/20 00:08:22;;;;;;;0.82;0.82;;;20.90;99.90;;;;;;4404125;32;20481;-76
2023/06/20 00:10:48;;;;;;;2.30;1.10;;;20.90;99.90;;;;;;4403808;32;20085;-75
2023/06/20 00:13:13;;;;;;;1.62;1.05;;;20.90;99.90;;;;;;4403004;32;20085;-76
2023/06/20 00:15:41;;;;;;;1.23;0.98;;;20.90;99.90;;;;;;4405442;32;20069;-75
2023/06/20 00:18:06;;;;;;;1.35;0.75;;;20.90;99.90;;;;;;4404726;32;20169;-76
2023/06/20 00:20:32;;;;;;;4.45;1.80;;;20.90;99.90;;;;;;4404650;32;20082;-75
2023/06/20 00:22:57;;;;;;;4.60;1.20;;;20.80;99.90;;;;;;4405100;32;20081;-75
2023/06/20 00:25:23;;;;;;;1.50;0.95;;;20.80;99.90;;;;;;4404574;32;20061;-75
2023/06/20 00:27:48;;;;;;;1.48;1.05;;;20.90;99.90;;;;;;4403876;32;20078;-76
2023/06/20 00:30:15;;;;;;;10.48;1.10;;;20.80;99.90;;;;;;4403388;32;20097;-75
2023/06/20 00:32:40;;;;;;;3.83;1.70;;;20.80;99.90;;;;;;4404291;32;20532;-75
2023/06/20 00:35:06;;;;;;;1.15;0.73;;;20.70;99.90;;;;;;4404477;32;20085;-76
2023/06/20 00:37:34;;;;;;;6.82;0.90;;;20.60;99.90;;;;;;4403134;32;20383;-76
2023/06/20 00:39:59;;;;;;;1.60;1.00;;;20.60;99.90;;;;;;4400099;32;20082;-75
2023/06/20 00:42:25;;;;;;;0.80;0.77;;;20.50;99.90;;;;;;4403239;32;20061;-75
2023/06/20 00:44:51;;;;;;;0.47;0.47;;;20.50;99.90;;;;;;4404311;32;20101;-76
2023/06/20 00:47:18;;;;;;;3.80;0.80;;;20.60;99.90;;;;;;4403989;32;20098;-75
2023/06/20 00:49:46;;;;;;;0.82;0.80;;;20.70;99.90;;;;;;4403941;32;20078;-75
2023/06/20 00:52:14;;;;;;;2.80;1.23;;;20.70;99.90;;;;;;4403414;32;20097;-76
2023/06/20 00:54:42;;;;;;;0.95;0.82;;;20.60;99.90;;;;;;4403637;32;20074;-76
2023/06/20 00:57:08;;;;;;;1.52;1.08;;;20.70;99.90;;;;;;4403078;32;20097;-76
2023/06/20 00:59:34;;;;;;;0.62;0.62;;;20.80;99.90;;;;;;4403240;32;20094;-76
2023/06/20 01:01:59;;;;;;;1.55;1.10;;;20.80;99.90;;;;;;4402610;32;20077;-75
2023/06/20 01:04:25;;;;;;;1.40;1.08;;;20.90;99.90;;;;;;4403093;32;20084;-75
2023/06/20 01:07:01;;;;;;;1.27;0.77;;;20.90;99.90;;;;;;4401270;32;20475;-75
2023/06/20 01:09:38;;;;;;;1.55;1.08;;;20.90;99.90;;;;;;4402296;32;20086;-74
2023/06/20 01:12:28;;;;;;;1.12;0.80;;;20.90;99.90;;;;;;4400460;32;20070;-74
2023/06/20 01:15:09;;;;;;;2.03;1.00;;;21.00;99.90;;;;;;4393113;32;20073;-76
2023/06/20 01:17:39;;;;;;;;;;;21.00;99.90;;;;;;4404204;32;20140;-76
2023/06/20 01:20:14;;;;;;;0.70;0.70;;;21.00;99.90;;;;;;4403416;32;20282;-74
2023/06/20 01:22:50;;;;;;;0.73;0.73;;;21.00;99.90;;;;;;4403996;32;20086;-75
2023/06/20 01:25:56;;;;;;;0.57;0.57;;;21.00;99.90;;;;;;4404593;32;20103;-75
2023/06/20 01:28:34;;;;;;;2.17;1.25;;;20.90;99.90;;;;;;4391404;32;20074;-77
2023/06/20 01:31:17;;;;;;;16.00;1.27;;;20.80;99.90;;;;;;4401625;32;20089;-74
2023/06/20 01:33:54;;;;;;;0.80;0.80;;;20.80;99.90;;;;;;4403242;32;20090;-76
2023/06/20 01:36:21;;;;;;;0.80;0.80;;;20.90;99.90;;;;;;4400825;32;20078;-75
2023/06/20 01:38:53;;;;;;;3.80;0.90;;;20.80;99.90;;;;;;4403817;32;20170;-75
2023/06/20 01:41:22;;;;;;;2.62;1.27;;;20.80;99.90;;;;;;4402629;32;20093;-75
2023/06/20 01:43:50;;;;;;;2.50;1.30;;;20.70;99.90;;;;;;4401053;32;20070;-75
2023/06/20 01:46:17;;;;;;;5.60;1.70;;;20.50;99.90;;;;;;4405639;32;20089;-75
2023/06/20 01:48:44;;;;;;;1.23;1.00;;;20.40;99.90;;;;;;4403779;32;20572;-76
2023/06/20 01:51:10;;;;;;;2.75;0.60;;;20.40;99.90;;;;;;4402355;32;20077;-75
2023/06/20 01:53:37;;;;;;;1.60;1.02;;;20.40;99.90;;;;;;4402818;32;20062;-74
2023/06/20 01:56:04;;;;;;;1.12;0.82;;;20.40;99.90;;;;;;4402513;32;20508;-75
2023/06/20 01:58:31;;;;;;;1.17;0.93;;;20.40;99.90;;;;;;4402381;32;20212;-75
2023/06/20 02:00:57;;;;;;;2.60;1.27;;;20.40;99.90;;;;;;4400198;32;20193;-74
2023/06/20 02:03:26;;;;;;;1.73;1.00;;;20.40;99.90;;;;;;4403572;32;20133;-75
2023/06/20 02:05:54;;;;;;;1.27;0.95;;;20.50;99.90;;;;;;4404815;32;20097;-75
2023/06/20 02:08:22;;;;;;;2.17;0.98;;;20.60;99.90;;;;;;4405299;32;20089;-75
2023/06/20 02:10:49;;;;;;;4.10;1.23;;;20.50;99.90;;;;;;4402808;32;20094;-75
2023/06/20 02:13:15;;;;;;;1.23;0.88;;;20.50;99.90;;;;;;4403237;32;20522;-75
2023/06/20 02:15:41;;;;;;;2.97;1.15;;;20.40;99.90;;;;;;4403553;32;20077;-74
2023/06/20 02:18:07;;;;;;;6.53;0.90;;;20.40;99.90;;;;;;4403098;32;20113;-75
2023/06/20 02:20:33;;;;;;;3.60;0.98;;;20.50;99.90;;;;;;4387501;32;20085;-75
2023/06/20 02:23:00;;;;;;;0.93;0.93;;;20.50;99.90;;;;;;4400606;32;20073;-76
2023/06/20 02:25:30;;;;;;;1.10;0.85;;;20.60;99.90;;;;;;4402475;32;20105;-74
2023/06/20 02:27:56;;;;;;;1.33;0.88;;;20.60;99.90;;;;;;4401164;32;20070;-75
2023/06/20 02:30:25;;;;;;;4.30;0.98;;;20.60;99.90;;;;;;4397374;32;20085;-76
2023/06/20 02:32:55;;;;;;;2.25;1.02;;;20.60;99.90;;;;;;4404166;32;20095;-75
2023/06/20 02:35:22;;;;;;;1.85;0.93;;;20.50;99.90;;;;;;4401544;32;20148;-75
2023/06/20 02:37:49;;;;;;;0.80;0.80;;;20.40;99.90;;;;;;4403348;32;20082;-75
2023/06/20 02:40:14;;;;;;;1.40;1.15;;;20.50;99.90;;;;;;4400519;32;20098;-74
2023/06/20 02:42:40;;;;;;;0.62;0.62;;;20.50;99.90;;;;;;4400408;32;20148;-75
2023/06/20 02:45:06;;;;;;;0.77;0.77;;;20.50;99.90;;;;;;4400440;32;20878;-74
2023/06/20 02:48:00;;;;;;;0.65;0.62;;;20.50;99.90;;;;;;4401950;32;20502;-75
2023/06/20 02:50:40;;;;;;;1.83;0.85;;;20.50;99.90;;;;;;4388302;32;21032;-75
2023/06/20 02:53:35;;;;;;;1.62;0.80;;;20.30;99.90;;;;;;4402785;32;20464;-75
2023/06/20 02:56:06;;;;;;;1.35;1.10;;;20.30;99.90;;;;;;4390004;32;20145;-75
2023/06/20 02:58:33;;;;;;;7.55;1.17;;;20.40;99.90;;;;;;4402195;32;20450;-76
2023/06/20 03:01:01;;;;;;;3.30;1.00;;;20.30;99.90;;;;;;4401312;32;20117;-75
2023/06/20 03:03:34;;;;;;;1.17;0.73;;;20.20;99.90;;;;;;4404126;32;20066;-75
2023/06/20 03:06:01;;;;;;;3.53;1.83;;;20.10;99.90;;;;;;4404169;32;20447;-75
2023/06/20 03:08:28;;;;;;;2.85;1.20;;;20.10;99.90;;;;;;4405594;32;20129;-76
2023/06/20 03:10:55;;;;;;;6.43;1.45;;;20.20;99.90;;;;;;4403497;32;20132;-74
2023/06/20 03:13:21;;;;;;;1.33;0.80;;;20.30;99.90;;;;;;4403673;32;20129;-76
2023/06/20 03:15:49;;;;;;;2.53;1.15;;;20.40;99.90;;;;;;4402517;32;20082;-76
2023/06/20 03:18:15;;;;;;;0.82;0.80;;;20.40;99.90;;;;;;4403634;32;20097;-76
2023/06/20 03:20:43;;;;;;;0.70;0.70;;;20.40;99.90;;;;;;4404427;32;20140;-75
2023/06/20 03:23:09;;;;;;;1.73;1.02;;;20.30;99.90;;;;;;4404012;32;20069;-76
2023/06/20 03:25:34;;;;;;;1.12;1.02;;;20.30;99.90;;;;;;4405800;32;20130;-75
2023/06/20 03:28:00;;;;;;;2.78;0.90;;;20.20;99.90;;;;;;4405047;32;20160;-74
2023/06/20 03:30:25;;;;;;;0.73;0.70;;;20.30;99.90;;;;;;4406600;32;21400;-75
2023/06/20 03:32:50;;;;;;;1.58;1.12;;;20.40;99.90;;;;;;4405793;32;20070;-75
2023/06/20 03:35:16;;;;;;;1.90;0.93;;;20.30;99.90;;;;;;4403031;32;20109;-75
2023/06/20 03:37:41;;;;;;;2.25;1.73;;;20.40;99.90;;;;;;4405131;32;20150;-74
2023/06/20 03:40:07;;;;;;;2.92;1.10;;;20.40;99.90;;;;;;4405854;32;20577;-75
2023/06/20 03:42:33;;;;;;;1.40;1.15;;;20.50;99.90;;;;;;4403636;32;20070;-75
2023/06/20 03:44:58;;;;;;;2.22;0.90;;;20.50;99.90;;;;;;4402086;32;20652;-74
2023/06/20 03:47:24;;;;;;;1.23;0.90;;;20.60;99.90;;;;;;4404109;32;20112;-75
2023/06/20 03:49:49;;;;;;;2.47;1.15;;;20.60;99.90;;;;;;4405550;32;20232;-74
2023/06/20 03:52:15;;;;;;;2.08;0.95;;;20.70;99.90;;;;;;4405057;32;20062;-75
2023/06/20 03:54:41;;;;;;;0.77;0.77;;;20.70;99.90;;;;;;4405012;32;20097;-75
2023/06/20 03:57:06;;;;;;;2.50;0.50;;;20.80;99.90;;;;;;4403920;32;20070;-74
2023/06/20 03:59:32;;;;;;;2.25;1.23;;;20.90;99.90;;;;;;4404707;32;20214;-76
2023/06/20 04:01:57;;;;;;;2.42;0.88;;;20.90;99.90;;;;;;4404890;32;20140;-76
2023/06/20 04:04:23;;;;;;;1.40;0.90;;;20.90;99.90;;;;;;4403688;32;20110;-76
2023/06/20 04:06:49;;;;;;;1.17;0.95;;;21.00;99.90;;;;;;4404561;32;21402;-75
2023/06/20 04:09:17;;;;;;;1.23;0.90;;;21.00;99.90;;;;;;4406278;32;20477;-76
2023/06/20 04:11:43;;;;;;;1.27;1.05;;;21.00;99.90;;;;;;4405412;32;20128;-74
2023/06/20 04:14:08;;;;;;;0.60;0.60;;;21.00;99.90;;;;;;4404570;32;20120;-74
2023/06/20 04:16:34;;;;;;;0.80;0.80;;;21.00;99.90;;;;;;4402985;32;20117;-75
2023/06/20 04:18:59;;;;;;;0.95;0.77;;;21.00;99.90;;;;;;4403874;32;20546;-74
2023/06/20 04:21:25;;;;;;;1.17;0.80;;;21.10;99.90;;;;;;4398828;32;21179;-75
2023/06/20 04:23:50;;;;;;;1.80;1.10;;;21.10;99.90;;;;;;4402763;32;20086;-75
2023/06/20 04:26:16;;;;;;;0.98;0.98;;;21.00;99.90;;;;;;4403013;32;20109;-74
2023/06/20 04:28:42;;;;;;;1.45;1.15;;;21.00;99.90;;;;;;4405379;32;20093;-75
2023/06/20 04:31:08;;;;;;;2.78;1.23;;;21.10;99.90;;;;;;4402366;32;20718;-75
2023/06/20 04:33:33;;;;;;;0.75;0.75;;;21.10;99.90;;;;;;4404318;32;20094;-74
2023/06/20 04:35:59;;;;;;;1.75;0.90;;;21.10;99.90;;;;;;4405380;32;20134;-74
2023/06/20 04:38:24;;;;;;;0.77;0.77;;;21.10;99.90;;;;;;4403197;32;20079;-74
2023/06/20 04:40:50;;;;;;;5.70;1.08;;;21.00;99.90;;;;;;4402589;32;20144;-74
2023/06/20 04:43:15;;;;;;;1.30;1.20;;;21.00;99.90;;;;;;4405204;32;20062;-74
2023/06/20 04:45:41;;;;;;;0.73;0.73;;;21.00;99.90;;;;;;4404958;32;20113;-74
2023/06/20 04:48:06;;;;;;;2.30;1.25;;;21.10;99.90;;;;;;4401521;32;20455;-74
2023/06/20 04:50:32;;;;;;;2.55;0.85;;;21.20;99.90;;;;;;4402810;32;20552;-77
2023/06/20 04:52:57;;;;;;;1.37;1.27;;;21.20;99.90;;;;;;4402944;32;20082;-77
2023/06/20 04:55:23;;;;;;;3.25;1.40;;;21.30;99.90;;;;;;4403653;32;20517;-76
2023/06/20 04:57:48;;;;;;;1.05;0.82;;;21.40;99.90;;;;;;4402893;32;20084;-77
2023/06/20 05:00:15;;;;;;;1.52;0.80;;;21.40;99.90;;;;;;4402935;32;20082;-77
2023/06/20 05:02:42;;;;;;;1.50;0.90;;;21.50;99.90;;;;;;4402320;32;20065;-76
2023/06/20 05:05:09;;;;;;;3.00;1.40;;;21.40;99.90;;;;;;4398857;32;20101;-75
2023/06/20 05:07:34;;;;;;;3.50;1.58;;;21.40;99.90;;;;;;4401298;32;20155;-76
2023/06/20 05:10:00;;;;;;;2.80;1.27;;;21.30;99.90;;;;;;4402267;32;20073;-75
2023/06/20 05:12:25;;;;;;;1.48;1.02;;;21.30;99.90;;;;;;4401952;32;20105;-75
2023/06/20 05:14:51;;;;;;;1.48;1.15;;;21.40;99.90;;;;;;4397085;32;20080;-76
2023/06/20 05:17:16;;;;;;;2.10;1.05;;;21.40;99.90;;;;;;4392037;32;20585;-76
2023/06/20 05:19:42;;;;;;;1.33;1.10;;;21.50;99.90;;;;;;4399073;32;20086;-74
2023/06/20 05:22:07;;;;;;;1.77;1.10;;;21.50;99.90;;;;;;4401891;32;20093;-74
2023/06/20 05:24:33;;;;;;;2.62;1.80;;;21.60;99.90;;;;;;4399921;32;20429;-74
2023/06/20 05:26:59;;;;;;;1.12;1.02;;;21.60;99.90;;;;;;4391999;32;20065;-74
2023/06/20 05:29:25;;;;;;;1.95;1.37;;;21.60;99.90;;;;;;4397933;32;20089;-76
2023/06/20 05:31:50;;;;;;;1.00;0.80;;;21.60;99.90;;;;;;4383532;32;20074;-76
2023/06/20 05:34:16;;;;;;;9.18;1.83;;;21.70;99.90;;;;;;4398170;32;20594;-75
2023/06/20 05:36:43;;;;;;;1.05;0.80;;;21.70;99.90;;;;;;4384217;32;20883;-75
2023/06/20 05:39:10;;;;;;;1.50;1.35;;;21.70;99.90;;;;;;4390758;32;20066;-78
2023/06/20 05:41:37;;;;;;;1.02;0.73;;;21.80;99.90;;;;;;4387428;32;20598;-77
2023/06/20 05:44:05;;;;;;;3.97;1.50;;;21.80;99.90;;;;;;4387513;32;20117;-76
2023/06/20 05:46:31;;;;;;;1.58;1.20;;;21.90;99.90;;;;;;4393156;32;20085;-76
2023/06/20 05:48:59;;;;;;;0.68;0.68;;;21.80;99.90;;;;;;4400160;32;20143;-77
2023/06/20 05:51:28;;;;;;;3.35;1.40;;;21.80;99.90;;;;;;4394490;32;20176;-77
2023/06/20 05:53:57;;;;;;;2.00;1.40;;;21.80;99.90;;;;;;4389512;32;20093;-78
2023/06/20 05:56:23;;;;;;;1.50;1.10;;;22.00;99.90;;;;;;4392331;32;20105;-79
2023/06/20 05:58:49;;;;;;;1.30;1.20;;;22.10;99.90;;;;;;4384802;32;20366;-77
2023/06/20 06:01:15;;;;;;;0.98;0.88;;;22.20;99.90;;;;;;4376999;32;20094;-77
2023/06/20 06:03:41;;;;;;;2.10;1.48;;;22.40;99.90;;;;;;4378049;32;20105;-76
2023/06/20 06:06:09;;;;;;;2.55;1.20;;;22.40;99.90;;;;;;4376202;32;20082;-75
2023/06/20 06:08:35;;;;;;;0.85;0.75;;;22.40;99.90;;;;;;4373862;32;20121;-75
2023/06/20 06:11:01;;;;;;;1.30;0.65;;;22.40;99.90;;;;;;4372288;32;20447;-75
2023/06/20 06:13:27;;;;;;;1.23;1.05;;;22.50;99.90;;;;;;4381792;32;20117;-78
2023/06/20 06:15:54;;;;;;;1.50;0.65;;;22.50;99.90;;;;;;4377136;32;20102;-78
2023/06/20 06:18:19;;;;;;;1.37;0.82;;;22.60;99.90;;;;;;4377639;32;20107;-77
2023/06/20 06:20:45;;;;;;;2.05;1.23;;;22.80;99.90;;;;;;4377519;32;20066;-76
2023/06/20 06:23:10;;;;;;;0.60;0.60;;;22.90;99.90;;;;;;4373700;32;20132;-76
2023/06/20 06:25:36;;;;;;;4.80;0.90;;;23.00;99.90;;;;;;4372668;32;20487;-77
2023/06/20 06:28:01;;;;;;;2.17;1.08;;;23.00;99.90;;;;;;4375411;32;20102;-77
2023/06/20 06:30:32;;;;;;;1.15;1.00;;;23.00;99.90;;;;;;4380445;32;20335;-76
2023/06/20 06:32:58;;;;;;;1.48;0.90;;;23.20;99.90;;;;;;4382272;32;20106;-77
2023/06/20 06:35:25;;;;;;;1.23;0.82;;;23.30;99.90;;;;;;4380990;32;20323;-75
2023/06/20 06:37:52;;;;;;;0.88;0.85;;;23.30;99.90;;;;;;4382524;32;20842;-74
2023/06/20 06:40:18;;;;;;;3.62;0.85;;;23.30;99.90;;;;;;4375297;32;20711;-78
2023/06/20 06:42:44;;;;;;;0.80;0.68;;;23.30;99.90;;;;;;4378073;32;20403;-74
2023/06/20 06:45:10;;;;;;;2.42;0.95;;;23.30;99.90;;;;;;4373000;32;20426;-76
2023/06/20 06:47:35;;;;;;;1.73;1.30;;;23.30;99.90;;;;;;4368743;32;20101;-76
2023/06/20 06:50:02;;;;;;;1.33;1.02;;;23.40;99.90;;;;;;4370408;32;20569;-76
2023/06/20 06:52:30;;;;;;;0.80;0.80;;;23.50;99.90;;;;;;4370049;32;22185;-76
2023/06/20 06:54:55;;;;;;;3.05;1.00;;;23.60;99.90;;;;;;4376321;32;20061;-77
2023/06/20 06:57:21;;;;;;;2.05;1.42;;;23.80;99.90;;;;;;4382078;32;20118;-75
2023/06/20 06:59:47;;;;;;;1.60;0.90;;;23.80;99.90;;;;;;4371841;32;20130;-75
2023/06/20 07:02:13;;;;;;;5.45;1.60;;;23.80;99.90;;;;;;4368442;32;20111;-77
2023/06/20 07:04:39;;;;;;;0.95;0.85;;;23.80;99.90;;;;;;4365885;32;20199;-76
2023/06/20 07:07:05;;;;;;;1.17;1.08;;;23.80;99.90;;;;;;4366342;32;20089;-76
2023/06/20 07:09:30;;;;;;;10.15;2.62;;;23.80;99.90;;;;;;4371150;32;21752;-75
2023/06/20 07:11:56;;;;;;;0.60;0.60;;;23.90;99.90;;;;;;4367597;32;20113;-75
2023/06/20 07:14:22;;;;;;;1.15;0.95;;;23.90;99.90;;;;;;4364707;32;20129;-76
2023/06/20 07:16:47;;;;;;;1.27;0.75;;;23.90;99.90;;;;;;4367007;32;20109;-76
2023/06/20 07:19:13;;;;;;;2.80;1.60;;;23.80;99.90;;;;;;4369252;32;20753;-77
2023/06/20 07:21:38;;;;;;;5.18;1.45;;;23.80;99.90;;;;;;4383461;32;20102;-76
2023/06/20 07:24:04;;;;;;;2.47;1.48;;;23.80;99.90;;;;;;4380752;32;20438;-74
2023/06/20 07:26:31;;;;;;;1.75;1.20;;;23.80;99.90;;;;;;4378740;32;20081;-74
2023/06/20 07:28:57;;;;;;;0.55;0.55;;;23.80;99.90;;;;;;4382264;32;20153;-77
2023/06/20 07:31:22;;;;;;;0.82;0.82;;;23.80;99.90;;;;;;4385306;32;20105;-77
2023/06/20 07:33:49;;;;;;;1.35;1.05;;;23.90;99.90;;;;;;4373644;32;20102;-75
2023/06/20 07:36:14;;;;;;;3.75;1.33;;;23.90;99.90;;;;;;4390373;32;20089;-76
2023/06/20 07:38:40;;;;;;;8.27;0.75;;;24.00;99.90;;;;;;4382112;32;20561;-75
2023/06/20 07:41:05;;;;;;;2.00;1.30;;;24.20;99.90;;;;;;4385245;32;20092;-75
2023/06/20 07:43:31;;;;;;;1.12;0.80;;;24.30;99.90;;;;;;4389186;32;20089;-76
2023/06/20 07:45:56;;;;;;;0.65;0.65;;;24.40;99.90;;;;;;4387253;32;20236;-76
2023/06/20 07:48:24;;;;;;;5.22;1.45;;;24.40;99.90;;;;;;4380425;32;20621;-76
2023/06/20 07:50:50;;;;;;;2.75;1.10;;;24.50;99.90;;;;;;4372699;32;20114;-77
2023/06/20 07:53:15;;;;;;;1.10;0.82;;;24.60;99.90;;;;;;4363459;32;21033;-76
2023/06/20 07:55:41;;;;;;;2.12;1.50;;;24.70;99.90;;;;;;4376581;32;20113;-76
2023/06/20 07:58:06;;;;;;;2.25;1.48;;;24.70;99.90;;;;;;4369824;32;20196;-76
2023/06/20 08:00:32;;;;;;;2.20;0.77;;;24.70;99.90;;;;;;4377800;32;20085;-75
2023/06/20 08:02:57;;;;;;;1.15;0.85;;;24.60;99.90;;;;;;4379827;32;20700;-76
2023/06/20 08:05:23;;;;;;;2.80;1.40;;;24.60;99.90;;;;;;4381324;32;20187;-76
2023/06/20 08:07:49;;;;;;;1.67;1.30;;;24.60;99.90;;;;;;4383254;32;20151;-75
2023/06/20 08:10:14;;;;;;;0.95;0.88;;;24.60;99.90;;;;;;4388691;32;20073;-75
2023/06/20 08:12:40;;;;;;;1.55;0.90;;;24.60;99.90;;;;;;4398843;32;20089;-76
2023/06/20 08:15:06;;;;;;;1.10;0.82;;;24.50;99.90;;;;;;4396227;32;20228;-74
2023/06/20 08:17:32;;;;;;;1.20;0.82;;;24.50;99.90;;;;;;4397551;32;20208;-75
2023/06/20 08:19:59;;;;;;;1.00;0.88;;;24.50;99.90;;;;;;4393820;32;20097;-78
2023/06/20 08:22:25;;;;;;;0.75;0.73;;;24.50;99.90;;;;;;4398186;32;20086;-74
2023/06/20 08:24:51;;;;;;;2.25;1.27;;;24.40;99.90;;;;;;4393827;26;21117;-65
2023/06/20 08:27:16;;;;;;;0.82;0.73;;;24.40;99.90;;;;;;4375487;32;20096;-65
2023/06/20 08:29:42;;;;;;;2.03;0.90;;;24.40;99.90;;;;;;4369216;32;20090;-64
2023/06/20 08:32:07;;;;;;;0.52;0.40;;;24.40;99.90;;;;;;4364626;32;20196;-63
2023/06/20 08:34:33;;;;;;;1.85;1.25;;;24.30;99.90;;;;;;4372537;32;20086;-65
2023/06/20 08:36:59;;;;;;;1.50;0.73;;;24.40;99.90;;;;;;4372062;32;20120;-67
2023/06/20 08:39:24;;;;;;;1.40;1.27;;;24.30;99.90;;;;;;4373849;32;20191;-67
2023/06/20 08:41:50;;;;;;;1.52;0.98;;;24.30;99.90;;;;;;4362747;32;20533;-66
2023/06/20 08:44:16;;;;;;;1.17;0.77;;;24.30;99.90;;;;;;4381927;32;20561;-66
2023/06/20 08:46:41;;;;;;;4.43;2.12;;;24.30;99.90;;;;;;4387469;32;20148;-65
2023/06/20 08:49:07;;;;;;;2.22;0.98;;;24.30;99.90;;;;;;4392045;32;20081;-65
2023/06/20 08:51:37;;;;;;;2.60;0.65;;;24.30;99.90;;;;;;4389252;32;20085;-65
2023/06/20 08:54:03;;;;;;;1.25;0.90;;;24.20;99.90;;;;;;4373979;32;21910;-65
2023/06/20 08:56:28;;;;;;;2.00;0.82;;;24.20;99.90;;;;;;4373621;32;20106;-65
2023/06/20 08:58:55;;;;;;;1.15;1.05;;;24.10;99.90;;;;;;4377561;32;20698;-65
2023/06/20 09:01:20;;;;;;;2.35;1.48;;;24.00;99.90;;;;;;4391466;32;20106;-65
2023/06/20 09:03:51;;;;;;;0.80;0.80;;;23.90;99.90;;;;;;4386851;32;20111;-65
2023/06/20 09:06:37;;;;;;;1.55;0.93;;;23.80;99.90;;;;;;4376633;32;20122;-64
2023/06/20 09:09:04;;;;;;;1.20;0.90;;;23.70;99.90;;;;;;4389319;32;20138;-66
2023/06/20 09:11:34;;;;;;;2.55;1.23;;;23.60;99.90;;;;;;4396103;32;20074;-63
2023/06/20 09:14:01;;;;;;;1.60;0.98;;;23.50;99.90;;;;;;4396482;32;20226;-65
2023/06/20 09:16:28;;;;;;;0.62;0.62;;;23.30;99.90;;;;;;4388446;32;20093;-66
2023/06/20 09:18:58;;;;;;;3.75;1.60;;;23.20;99.90;;;;;;4383079;32;20094;-66
2023/06/20 09:21:24;;;;;;;1.12;1.02;;;23.00;99.90;;;;;;4386166;32;20939;-66
2023/06/20 09:24:04;;;;;;;3.03;1.15;;;22.90;99.90;;;;;;4374402;32;20081;-65
2023/06/20 09:26:30;;;;;;;1.05;1.00;;;22.90;99.90;;;;;;4387895;32;20110;-64
2023/06/20 09:29:14;;;;;;;1.17;0.95;;;22.60;99.90;;;;;;4376294;32;20741;-66
2023/06/20 09:31:45;;;;;;;1.87;0.77;;;22.50;99.90;;;;;;4392804;32;20160;-65
2023/06/20 09:34:12;;;;;;;;;;;22.40;99.90;;;;;;4378563;32;20558;-64
2023/06/20 09:36:39;;;;;;;3.03;1.42;;;22.30;99.90;;;;;;4395149;32;20186;-67
2023/06/20 09:39:13;;;;;;;2.20;1.00;;;22.30;99.90;;;;;;4401097;32;20085;-66
2023/06/20 09:41:46;;;;;;;0.88;0.77;;;22.20;99.90;;;;;;4403944;32;20113;-64
2023/06/20 09:44:13;;;;;;;3.25;1.25;;;22.10;99.90;;;;;;4398283;32;20171;-64
2023/06/20 09:46:39;;;;;;;1.23;0.82;;;21.80;99.90;;;;;;4395947;32;20086;-65
2023/06/20 09:49:05;;;;;;;2.60;1.40;;;21.70;99.90;;;;;;4400273;32;20101;-66
2023/06/20 09:51:33;;;;;;;2.05;1.30;;;21.50;99.90;;;;;;4386028;32;20159;-62
2023/06/20 09:54:11;;;;;;;4.10;1.73;;;21.50;99.90;;;;;;4391291;32;20132;-65
2023/06/20 09:56:45;;;;;;;1.52;0.88;;;21.30;99.90;;;;;;4383519;32;20070;-66
2023/06/20 09:59:13;;;;;;;2.83;0.95;;;21.10;99.90;;;;;;4393565;32;20085;-65
2023/06/20 10:01:40;;;;;;;2.90;1.20;;;20.90;99.90;;;;;;4379911;32;20188;-64
2023/06/20 10:04:06;;;;;;;3.28;1.12;;;20.90;99.90;;;;;;4381327;32;20077;-65
2023/06/20 10:06:34;;;;;;;1.02;0.95;;;20.80;99.90;;;;;;4376046;32;20078;-65
2023/06/20 10:09:01;;;;;;;1.67;1.10;;;20.70;99.90;;;;;;4377981;32;20121;-65
2023/06/20 10:11:27;;;;;;;1.55;1.37;;;20.70;99.90;;;;;;4389436;32;20381;-66
2023/06/20 10:13:54;;;;;;;1.40;1.30;;;20.70;99.90;;;;;;4392320;32;20117;-66
2023/06/20 10:16:19;;;;;;;6.05;1.30;;;20.60;99.90;;;;;;4390148;32;20166;-66
2023/06/20 10:18:47;;;;;;;4.75;1.45;;;20.50;99.90;;;;;;4398676;32;20089;-67
2023/06/20 10:21:14;;;;;;;1.33;1.02;;;20.50;99.90;;;;;;4408086;32;20066;-66
2023/06/20 10:23:40;;;;;;;0.55;0.55;;;20.50;99.90;;;;;;4402724;32;20122;-66
2023/06/20 10:26:08;;;;;;;1.15;1.05;;;20.50;99.90;;;;;;4390726;32;20085;-67
2023/06/20 10:28:37;;;;;;;11.77;1.17;;;20.40;99.90;;;;;;4402913;32;20069;-65
2023/06/20 10:31:03;;;;;;;1.00;1.00;;;20.40;99.90;;;;;;4396672;32;20070;-66
2023/06/20 10:33:32;;;;;;;2.80;1.52;;;20.40;99.90;;;;;;4394929;32;20668;-66
2023/06/20 10:36:01;;;;;;;1.17;0.80;;;20.30;99.90;;;;;;4384726;32;21817;-67
2023/06/20 10:38:28;;;;;;;1.87;1.17;;;20.30;99.90;;;;;;4382457;32;20101;-68
2023/06/20 10:41:13;;;;;;;15.57;1.77;;;20.30;99.90;;;;;;4389391;32;20095;-65
2023/06/20 10:43:47;;;;;;;2.53;0.90;;;20.30;99.90;;;;;;4378828;32;20100;-66
2023/06/20 10:46:13;;;;;;;3.87;1.35;;;20.30;99.90;;;;;;4387343;32;20529;-67
2023/06/20 10:48:39;;;;;;;2.25;1.48;;;20.30;99.90;;;;;;4385784;32;20069;-67
2023/06/20 10:51:05;;;;;;;4.07;1.25;;;20.20;99.90;;;;;;4378414;32;20102;-66
2023/06/20 10:53:31;;;;;;;4.10;1.70;;;20.30;99.90;;;;;;4373684;32;20102;-68
2023/06/20 10:55:57;;;;;;;3.30;1.30;;;20.40;99.90;;;;;;4367575;32;20101;-67
2023/06/20 10:58:22;;;;;;;30.48;2.12;;;20.50;99.90;;;;;;4360646;32;20101;-67
2023/06/20 11:00:51;;;;;;;4.18;1.77;;;20.50;99.90;;;;;;4384473;32;20791;-66
2023/06/20 11:03:17;;;;;;;2.28;1.27;;;20.60;99.90;;;;;;4387662;32;20088;-64
2023/06/20 11:05:48;;;;;;;2.53;1.48;;;20.60;99.90;;;;;;4382131;32;20106;-66
2023/06/20 11:08:22;;;;;;;1.08;0.80;;;20.60;99.90;;;;;;4388400;32;20936;-65
2023/06/20 11:10:48;;;;;;;15.38;1.35;;;20.60;99.90;;;;;;4374981;32;21263;-65
2023/06/20 11:13:13;;;;;;;7.65;1.60;;;20.70;99.90;;;;;;4390494;32;20097;-63
2023/06/20 11:15:39;;;;;;;2.00;1.50;;;20.80;99.90;;;;;;4389751;32;20074;-67
2023/06/20 11:18:06;;;;;;;2.30;1.67;;;20.70;99.90;;;;;;4392079;32;20098;-64
2023/06/20 11:20:35;;;;;;;2.45;1.37;;;20.70;99.90;;;;;;4386092;32;20075;-65
2023/06/20 11:23:03;;;;;;;1.45;1.20;;;20.70;99.90;;;;;;4387915;32;20566;-68
2023/06/20 11:25:31;;;;;;;4.30;1.05;;;20.80;99.90;;;;;;4392931;32;20129;-65
2023/06/20 11:28:06;;;;;;;1.02;0.93;;;20.80;99.90;;;;;;4389408;32;20094;-66
2023/06/20 11:30:33;;;;;;;2.05;1.25;;;20.80;99.90;;;;;;4385967;32;20078;-66
2023/06/20 11:33:08;;;;;;;6.18;1.67;;;20.90;99.90;;;;;;4387212;32;20813;-66
2023/06/20 11:35:52;;;;;;;7.97;1.70;;;21.10;99.90;;;;;;4391357;32;20077;-68
2023/06/20 11:38:25;;;;;;;4.47;1.80;;;21.20;99.90;;;;;;4389380;32;20103;-66
2023/06/20 11:41:07;;;;;;;2.30;1.30;;;21.40;99.90;;;;;;4390924;32;20097;-68
2023/06/20 11:43:37;;;;;;;10.23;1.25;;;21.50;99.90;;;;;;4358539;32;20084;-66
2023/06/20 11:46:03;;;;;;;4.22;1.20;;;21.60;99.90;;;;;;4384006;32;108538;-65
2023/06/20 11:48:29;;;;;;;1.65;0.93;;;21.70;99.90;;;;;;4382601;32;20103;-62
2023/06/20 11:50:56;;;;;;;1.05;0.90;;;21.80;99.90;;;;;;4392849;32;20057;-65
2023/06/20 11:53:26;;;;;;;1.00;0.93;;;21.90;99.90;;;;;;4388246;32;20101;-65
2023/06/20 11:55:53;;;;;;;5.32;1.58;;;22.00;99.90;;;;;;4394140;32;20094;-64
2023/06/20 11:58:18;;;;;;;1.55;1.17;;;22.00;99.90;;;;;;4391029;32;20542;-64
2023/06/20 12:00:47;;;;;;;3.70;1.35;;;22.00;99.90;;;;;;4388526;32;20093;-65
2023/06/20 12:03:17;;;;;;;4.37;1.00;;;22.10;99.90;;;;;;4371835;32;20088;-65
2023/06/20 12:05:43;;;;;;;4.43;1.60;;;22.10;99.90;;;;;;4380668;32;20625;-63
2023/06/20 12:08:08;;;;;;;2.53;1.62;;;22.10;99.90;;;;;;4378600;32;20082;-64
2023/06/20 12:10:38;;;;;;;1.75;0.90;;;22.40;99.90;;;;;;4370433;32;20091;-64
2023/06/20 12:13:04;;;;;;;3.08;1.08;;;22.80;99.90;;;;;;4391531;32;20549;-66
2023/06/20 12:15:30;;;;;;;4.55;1.42;;;23.10;99.90;;;;;;4389650;32;20098;-64
2023/06/20 12:17:55;;;;;;;2.15;1.05;;;23.30;99.90;;;;;;4389850;32;20080;-62
2023/06/20 12:20:22;;;;;;;2.92;1.00;;;23.20;99.90;;;;;;4391636;32;20101;-64
2023/06/20 12:22:48;;;;;;;4.05;1.37;;;23.40;99.90;;;;;;4395773;32;20144;-64
2023/06/20 12:25:13;;;;;;;2.20;1.00;;;23.90;99.90;;;;;;4384846;32;20684;-63
2023/06/20 12:27:39;;;;;;;1.83;0.70;;;24.50;99.90;;;;;;4393153;32;20096;-65
2023/06/20 12:30:06;;;;;;;1.25;0.77;;;24.80;99.90;;;;;;4399641;32;20086;-64
2023/06/20 12:32:31;;;;;;;1.42;0.40;;;24.90;99.90;;;;;;4395939;32;20089;-66
2023/06/20 12:34:57;;;;;;;1.20;0.93;;;24.90;99.90;;;;;;4389762;32;20489;-62
2023/06/20 12:37:22;;;;;;;2.45;0.80;;;25.00;99.90;;;;;;4381938;32;20879;-62
2023/06/20 12:39:48;;;;;;;0.60;0.50;;;24.80;99.90;;;;;;4398755;32;20136;-64
2023/06/20 12:42:16;;;;;;;6.50;1.65;;;24.90;99.90;;;;;;4404165;32;20195;-63
2023/06/20 12:44:42;;;;;;;1.05;0.95;;;25.50;99.90;;;;;;4400730;32;20114;-62
2023/06/20 12:47:08;;;;;;;0.47;0.47;;;26.10;99.90;;;;;;4406888;32;20089;-60
2023/06/20 12:49:34;;;;;;;1.77;0.80;;;26.40;99.90;;;;;;4385835;32;20105;-61